Time;durP1;ratioP1;P1;durP2;ratioP2;P2;SDS_P1;SDS_P2;PMS_P1;PMS_P2;Temp;Humidity;BMP_temperature;BMP_pressure;BME280_temperature;BME280_humidity;BME280_pressure;Samples;Min_cycle;Max_cycle;Signal;HPM_P1;HPM_P2
2021/04/21 00:02:26;;;;;;;;;;;7.70;99.90;;;;;;4972917;28;20319;-68
2021/04/21 00:04:55;;;;;;;;;;;7.70;99.90;;;;;;4958861;29;20025;-68
2021/04/21 00:07:23;;;;;;;;;;;7.80;99.90;;;;;;4957930;28;19969;-68
2021/04/21 00:09:51;;;;;;;;;;;7.80;99.90;;;;;;4958471;28;20071;-68
2021/04/21 00:12:20;;;;;;;;;;;7.80;99.90;;;;;;4957905;29;19928;-67
2021/04/21 00:14:48;;;;;;;;;;;7.80;99.90;;;;;;4972790;28;20351;-66
2021/04/21 00:17:22;;;;;;;;;;;7.80;99.90;;;;;;4956783;28;19942;-69
2021/04/21 00:19:51;;;;;;;;;;;7.90;99.90;;;;;;4958436;29;19929;-71
2021/04/21 00:22:21;;;;;;;;;;;7.80;99.90;;;;;;4958802;28;19926;-68
2021/04/21 00:24:50;;;;;;;;;;;7.90;99.90;;;;;;4958309;29;19946;-68
2021/04/21 00:27:18;;;;;;;;;;;7.90;99.90;;;;;;4958405;28;19977;-69
2021/04/21 00:29:46;;;;;;;;;;;7.90;99.90;;;;;;4972735;28;19922;-69
2021/04/21 00:32:14;;;;;;;;;;;7.80;99.90;;;;;;4956455;28;19922;-72
2021/04/21 00:34:44;;;;;;;;;;;7.80;99.90;;;;;;4956845;28;19969;-68
2021/04/21 00:37:11;;;;;;;;;;;7.80;99.90;;;;;;4957338;28;20401;-68
2021/04/21 00:39:41;;;;;;;;;;;7.70;99.90;;;;;;4957815;29;20355;-68
2021/04/21 00:42:15;;;;;;;;;;;7.70;99.90;;;;;;4972904;28;19922;-69
2021/04/21 00:44:50;;;;;;;;;;;7.70;99.90;;;;;;4972756;28;19922;-68
2021/04/21 00:47:21;;;;;;;;;;;7.60;99.90;;;;;;4957317;28;19922;-69
2021/04/21 00:49:55;;;;;;;;;;;7.60;99.90;;;;;;4956336;29;19929;-68
2021/04/21 00:52:25;;;;;;;;;;;7.60;99.90;;;;;;4957391;28;19926;-67
2021/04/21 00:55:01;;;;;;;;;;;7.50;99.90;;;;;;4957585;29;19922;-70
2021/04/21 00:57:33;;;;;;;;;;;7.50;99.90;;;;;;4972777;28;19977;-71
2021/04/21 01:00:06;;;;;;;;;;;7.50;99.90;;;;;;4956486;29;20335;-67
2021/04/21 01:02:44;;;;;;;;;;;7.50;99.90;;;;;;4952840;29;19930;-67
2021/04/21 01:05:17;;;;;;;;;;;7.50;99.90;;;;;;4936963;29;19964;-68
2021/04/21 01:07:47;;;;;;;;;;;7.60;99.90;;;;;;4937817;29;20394;-71
2021/04/21 01:10:15;;;;;;;;;;;7.60;99.90;;;;;;4937444;29;20363;-68
2021/04/21 01:12:48;;;;;;;;;;;7.50;99.90;;;;;;4937133;29;20442;-71
2021/04/21 01:15:18;;;;;;;;;;;7.50;99.90;;;;;;4952572;28;19950;-69
2021/04/21 01:17:48;;;;;;;;;;;7.40;99.90;;;;;;4956515;29;19972;-67
2021/04/21 01:20:19;;;;;;;;;;;7.40;99.90;;;;;;4957608;29;20301;-67
2021/04/21 01:23:02;;;;;;;;;;;7.40;99.90;;;;;;4956934;29;19922;-67
2021/04/21 01:25:35;;;;;;;;;;;7.40;99.90;;;;;;4972216;28;19923;-66
2021/04/21 01:28:05;;;;;;;;;;;7.30;99.90;;;;;;4972278;28;20386;-68
2021/04/21 01:30:58;;;;;;;;;;;7.30;99.90;;;;;;4955900;28;19923;-68
2021/04/21 01:33:25;;;;;;;;;;;7.20;99.90;;;;;;4971260;28;19922;-68
2021/04/21 01:35:55;;;;;;;;;;;7.20;99.90;;;;;;4955019;29;19922;-68
2021/04/21 01:38:49;;;;;;;;;;;7.20;99.90;;;;;;4972153;28;19973;-72
2021/04/21 01:41:18;;;;;;;;;;;7.10;99.90;;;;;;4957241;29;19926;-71
2021/04/21 01:43:48;;;;;;;;;;;7.10;99.90;;;;;;4957353;28;19922;-68
2021/04/21 01:46:16;;;;;;;;;;;7.00;99.90;;;;;;4955480;28;20005;-68
2021/04/21 01:48:44;;;;;;;;;;;7.10;99.90;;;;;;4956579;29;20267;-68
2021/04/21 01:51:13;;;;;;;;;;;7.10;99.90;;;;;;4971679;28;19930;-68
2021/04/21 01:53:43;;;;;;;;;;;7.10;99.90;;;;;;4955917;29;20370;-68
2021/04/21 01:56:13;;;;;;;;;;;7.10;99.90;;;;;;4960828;28;19926;-67
2021/04/21 01:58:48;;;;;;;;;;;7.10;99.90;;;;;;4962723;29;19947;-68
2021/04/21 02:01:29;;;;;;;;;;;7.00;99.90;;;;;;4959399;28;19923;-68
2021/04/21 02:03:59;;;;;;;;;;;7.00;99.90;;;;;;4957932;28;19929;-68
2021/04/21 02:06:44;;;;;;;;;;;6.90;99.90;;;;;;4975505;28;20394;-71
2021/04/21 02:09:15;;;;;;;;;;;6.90;99.90;;;;;;4961829;28;19930;-70
2021/04/21 02:11:47;;;;;;;;;;;6.90;99.90;;;;;;4961698;28;20282;-68
2021/04/21 02:14:23;;;;;;;;;;;6.90;99.90;;;;;;4959720;29;19931;-68
2021/04/21 02:17:00;;;;;;;;;;;6.90;99.90;;;;;;4959821;28;20347;-68
2021/04/21 02:19:35;;;;;;;;;;;6.80;99.90;;;;;;4974828;28;19922;-70
2021/04/21 02:22:08;;;;;;;;;;;6.80;99.90;;;;;;4975168;28;20366;-68
2021/04/21 02:24:44;;;;;;;;;;;6.80;99.90;;;;;;4975940;28;19923;-67
2021/04/21 02:27:16;;;;;;;;;;;6.80;99.90;;;;;;4976616;28;19993;-67
2021/04/21 02:29:47;;;;;;;;;;;6.80;99.90;;;;;;4961217;29;19922;-68
2021/04/21 02:32:22;;;;;;;;;;;6.90;99.90;;;;;;4975526;28;19922;-68
2021/04/21 02:34:52;;;;;;;;;;;6.90;99.90;;;;;;4968067;28;19922;-68
2021/04/21 02:37:23;;;;;;;;;;;6.90;99.90;;;;;;4969056;29;19922;-68
2021/04/21 02:39:55;;;;;;;;;;;6.90;99.90;;;;;;4969724;28;19961;-67
2021/04/21 02:42:27;;;;;;;;;;;6.90;99.90;;;;;;4985842;28;19933;-70
2021/04/21 02:44:57;;;;;;;;;;;6.80;99.90;;;;;;4985711;28;19929;-68
2021/04/21 02:47:28;;;;;;;;;;;6.80;99.90;;;;;;4975770;28;19922;-69
2021/04/21 02:50:00;;;;;;;;;;;6.80;99.90;;;;;;4987198;28;19922;-69
2021/04/21 02:52:35;;;;;;;;;;;6.70;99.90;;;;;;4974730;29;19950;-68
2021/04/21 02:55:08;;;;;;;;;;;6.70;99.90;;;;;;5007515;28;19922;-67
2021/04/21 02:57:50;;;;;;;;;;;6.70;99.90;;;;;;4976423;29;19989;-68
2021/04/21 03:00:22;;;;;;;;;;;6.60;99.90;;;;;;4992389;28;19994;-68
2021/04/21 03:02:56;;;;;;;;;;;6.60;99.90;;;;;;4995868;28;19926;-72
2021/04/21 03:05:24;;;;;;;;;;;6.60;99.90;;;;;;4995596;28;19933;-69
2021/04/21 03:07:56;;;;;;;;;;;6.60;99.90;;;;;;4994695;28;19926;-68
2021/04/21 03:10:25;;;;;;;;;;;6.50;99.90;;;;;;4996429;28;19937;-68
2021/04/21 03:12:55;;;;;;;;;;;6.50;99.90;;;;;;4995337;28;19973;-70
2021/04/21 03:15:22;;;;;;;;;;;6.50;99.90;;;;;;4993740;28;19930;-69
2021/04/21 03:17:53;;;;;;;;;;;6.50;99.90;;;;;;4994810;28;19922;-69
2021/04/21 03:20:21;;;;;;;;;;;6.50;99.90;;;;;;4995986;28;19922;-70
2021/04/21 03:22:51;;;;;;;;;;;6.50;99.90;;;;;;4995701;28;19993;-68
2021/04/21 03:25:21;;;;;;;;;;;6.50;99.90;;;;;;4977892;28;19922;-68
2021/04/21 03:27:50;;;;;;;;;;;6.50;99.90;;;;;;4995249;28;19922;-70
2021/04/21 03:30:19;;;;;;;;;;;6.50;99.90;;;;;;4993929;28;19922;-68
2021/04/21 03:32:48;;;;;;;;;;;6.50;99.90;;;;;;4986723;28;20437;-68
2021/04/21 03:35:17;;;;;;;;;;;6.50;99.90;;;;;;4980301;28;19922;-69
2021/04/21 03:37:50;;;;;;;;;;;6.50;99.90;;;;;;4963534;28;19977;-68
2021/04/21 03:40:17;;;;;;;;;;;6.50;99.90;;;;;;4980730;28;20001;-68
2021/04/21 03:42:45;;;;;;;;;;;6.50;99.90;;;;;;4979281;28;19929;-68
2021/04/21 03:45:14;;;;;;;;;;;6.50;99.90;;;;;;4978503;28;19959;-68
2021/04/21 03:47:42;;;;;;;;;;;6.50;99.90;;;;;;4977468;28;19922;-69
2021/04/21 03:50:10;;;;;;;;;;;6.60;99.90;;;;;;4979083;28;19980;-68
2021/04/21 03:52:39;;;;;;;;;;;6.60;99.90;;;;;;4979020;28;19929;-68
2021/04/21 03:55:08;;;;;;;;;;;6.60;99.90;;;;;;4978097;28;20027;-70
2021/04/21 03:57:37;;;;;;;;;;;6.60;99.90;;;;;;4979538;28;19928;-68
2021/04/21 04:00:05;;;;;;;;;;;6.60;99.90;;;;;;4962130;28;19929;-69
2021/04/21 04:02:34;;;;;;;;;;;6.60;99.90;;;;;;4960013;28;20366;-69
2021/04/21 04:05:04;;;;;;;;;;;6.60;99.90;;;;;;4960457;28;19925;-68
2021/04/21 04:08:01;;;;;;;;;;;6.50;99.90;;;;;;4977895;28;20318;-69
2021/04/21 04:10:32;;;;;;;;;;;6.50;99.90;;;;;;4978230;28;19965;-71
2021/04/21 04:13:01;;;;;;;;;;;6.50;99.90;;;;;;4978066;28;19925;-69
2021/04/21 04:15:29;;;;;;;;;;;6.50;99.90;;;;;;4977256;28;19926;-68
2021/04/21 04:17:56;;;;;;;;;;;6.50;99.90;;;;;;4976537;28;20071;-69
2021/04/21 04:20:25;;;;;;;;;;;6.50;99.90;;;;;;4960598;28;20012;-69
2021/04/21 04:22:53;;;;;;;;;;;6.50;99.90;;;;;;4977967;28;20374;-68
2021/04/21 04:25:25;;;;;;;;;;;6.50;99.90;;;;;;4978178;28;19922;-71
2021/04/21 04:27:54;;;;;;;;;;;6.50;99.90;;;;;;4976968;28;19929;-70
2021/04/21 04:30:46;;;;;;;;;;;6.40;99.90;;;;;;4977455;28;19922;-69
2021/04/21 04:33:16;;;;;;;;;;;6.50;99.90;;;;;;4977942;28;19922;-68
2021/04/21 04:35:44;;;;;;;;;;;6.50;99.90;;;;;;4960725;28;19922;-69
2021/04/21 04:38:12;;;;;;;;;;;6.50;99.90;;;;;;4974673;28;19921;-69
2021/04/21 04:40:40;;;;;;;;;;;6.40;99.90;;;;;;4975171;28;19922;-68
2021/04/21 04:43:08;;;;;;;;;;;6.50;99.90;;;;;;4976250;28;19922;-68
2021/04/21 04:48:36;;;;;;;;;;;6.50;99.90;;;;;;4976975;28;19945;-66
2021/04/21 04:51:05;;;;;;;;;;;6.50;99.90;;;;;;4976963;28;20296;-66
2021/04/21 04:53:34;;;;;;;;;;;6.50;99.90;;;;;;4976413;28;20344;-67
2021/04/21 04:56:27;;;;;;;;;;;6.60;99.90;;;;;;4977239;28;19930;-67
2021/04/21 04:58:57;;;;;;;;;;;6.60;99.90;;;;;;4975930;28;20358;-67
2021/04/21 05:01:25;;;;;;;;;;;6.60;99.90;;;;;;4976211;28;20045;-67
2021/04/21 05:03:54;;;;;;;;;;;6.60;99.90;;;;;;4976622;28;19957;-67
2021/04/21 05:06:24;;;;;;;;;;;6.70;99.90;;;;;;4978602;28;19929;-70
2021/04/21 05:08:52;;;;;;;;;;;6.70;99.90;;;;;;4975780;28;20389;-69
2021/04/21 05:11:21;;;;;;;;;;;6.80;99.90;;;;;;4977490;28;19926;-68
2021/04/21 05:13:49;;;;;;;;;;;6.80;99.90;;;;;;4960465;28;19922;-66
2021/04/21 05:16:34;;;;;;;;;;;6.90;99.90;;;;;;4976356;28;20321;-66
2021/04/21 05:19:16;;;;;;;;;;;7.00;99.90;;;;;;4956032;28;19926;-67
2021/04/21 05:22:02;;;;;;;;;;;7.10;99.90;;;;;;4975934;28;19981;-66
2021/04/21 05:24:47;;;;;;;;;;;7.20;99.90;;;;;;4977169;28;19929;-67
2021/04/21 05:30:48;;;;;;;;;;;7.30;99.90;;;;;;4966987;28;20008;-69
2021/04/21 05:33:43;;;;;;;;;;;7.30;99.90;;;;;;4976412;28;19997;-67
2021/04/21 05:36:36;;;;;;;;;;;7.40;99.90;;;;;;4977392;28;19929;-67
2021/04/21 05:39:23;;;;;;;;;;;7.40;99.90;;;;;;4979533;28;19929;-69
2021/04/21 05:42:30;;;;;;;;;;;7.50;99.90;;;;;;4981919;28;19922;-66
2021/04/21 05:45:18;;;;;;;;;;;7.70;99.90;;;;;;4980907;28;19953;-66
2021/04/21 05:47:55;;;;;;;;;;;7.70;99.90;;;;;;4996409;28;19922;-66
2021/04/21 05:50:32;;;;;;;;;;;7.80;99.90;;;;;;4995500;28;20275;-67
2021/04/21 05:53:12;;;;;;;;;;;8.00;99.90;;;;;;4980788;28;19929;-66
2021/04/21 05:55:55;;;;;;;;;;;8.30;99.90;;;;;;4981046;28;20025;-66
2021/04/21 05:59:10;;;;;;;;;;;8.30;99.90;;;;;;4981011;28;20020;-66
2021/04/21 06:01:40;;;;;;;;;;;8.40;99.90;;;;;;4965321;28;19922;-67
2021/04/21 06:04:09;;;;;;;;;;;8.90;99.90;;;;;;4979509;28;19922;-66
2021/04/21 06:06:36;;;;;;;;;;;8.90;99.90;;;;;;4981293;28;19960;-67
2021/04/21 06:09:06;;;;;;;;;;;9.30;99.90;;;;;;4980676;28;19922;-66
2021/04/21 06:11:34;;;;;;;;;;;9.20;99.90;;;;;;4980187;28;20018;-68
2021/04/21 06:14:08;;;;;;;;;;;9.30;99.90;;;;;;4981401;28;19922;-66
2021/04/21 06:16:36;;;;;;;;;;;9.20;99.90;;;;;;4980543;28;20290;-67
2021/04/21 06:19:04;;;;;;;;;;;9.00;99.90;;;;;;4980599;28;19922;-69
2021/04/21 06:21:33;;;;;;;;;;;9.00;99.90;;;;;;4980508;28;19930;-67
2021/04/21 06:24:01;;;;;;;;;;;9.20;99.90;;;;;;4978750;28;19922;-69
2021/04/21 06:26:29;;;;;;;;;;;9.20;99.90;;;;;;4980233;28;20032;-68
2021/04/21 06:28:58;;;;;;;;;;;9.30;99.90;;;;;;4982231;28;19969;-69
2021/04/21 06:31:32;;;;;;;;;;;9.40;99.90;;;;;;4980322;28;19946;-67
2021/04/21 06:33:59;;;;;;;;;;;9.50;99.90;;;;;;4980906;28;19930;-66
2021/04/21 06:36:31;;;;;;;;;;;9.70;99.90;;;;;;4980613;28;19986;-66
2021/04/21 06:39:00;;;;;;;;;;;9.90;99.90;;;;;;4980795;28;20294;-66
2021/04/21 06:41:28;;;;;;;;;;;9.90;99.90;;;;;;4981300;28;19926;-69
2021/04/21 06:43:56;;;;;;;;;;;9.90;99.90;;;;;;4981443;28;19925;-66
2021/04/21 06:46:24;;;;;;;;;;;10.20;99.90;;;;;;4979888;28;19925;-65
2021/04/21 06:48:52;;;;;;;;;;;10.40;99.90;;;;;;4980094;28;20279;-68
2021/04/21 06:51:21;;;;;;;;;;;10.70;99.90;;;;;;4981214;28;19922;-66
2021/04/21 06:53:52;;;;;;;;;;;10.80;99.90;;;;;;4980578;28;19922;-66
2021/04/21 06:56:27;;;;;;;;;;;10.90;99.90;;;;;;4980675;28;19928;-66
2021/04/21 06:58:55;;;;;;;;;;;11.00;99.90;;;;;;4978793;28;19941;-67
2021/04/21 07:01:26;;;;;;;;;;;11.20;99.90;;;;;;4977828;28;20004;-67
2021/04/21 07:03:54;;;;;;;;;;;11.60;99.90;;;;;;4979403;28;19922;-66
2021/04/21 07:06:22;;;;;;;;;;;11.50;99.90;;;;;;4981069;28;19933;-65
2021/04/21 07:08:49;;;;;;;;;;;11.60;99.90;;;;;;4980801;28;19922;-67
2021/04/21 07:11:21;;;;;;;;;;;11.80;99.90;;;;;;4980950;28;19957;-69
2021/04/21 07:13:50;;;;;;;;;;;12.50;99.90;;;;;;4979934;28;19929;-69
2021/04/21 07:16:19;;;;;;;;;;;13.80;99.90;;;;;;4979551;28;19922;-65
2021/04/21 07:18:50;;;;;;;;;;;15.10;99.90;;;;;;4979830;28;19922;-66
2021/04/21 07:21:18;;;;;;;;;;;16.40;97.50;;;;;;4978969;28;19922;-65
2021/04/21 07:23:46;;;;;;;;;;;16.80;95.60;;;;;;4979708;28;19922;-65
2021/04/21 07:26:14;;;;;;;;;;;16.30;94.70;;;;;;4962934;28;19922;-67
2021/04/21 07:28:42;;;;;;;;;;;15.00;96.50;;;;;;4979750;28;19928;-65
2021/04/21 07:31:12;;;;;;;;;;;15.10;98.00;;;;;;4979124;28;19985;-66
2021/04/21 07:33:42;;;;;;;;;;;15.70;97.00;;;;;;4962994;28;20289;-65
2021/04/21 07:36:11;;;;;;;;;;;15.80;95.90;;;;;;4979956;28;19921;-64
2021/04/21 07:38:43;;;;;;;;;;;15.40;96.40;;;;;;4979880;28;19929;-65
2021/04/21 07:41:12;;;;;;;;;;;14.50;97.70;;;;;;4979077;28;19966;-66
2021/04/21 07:43:41;;;;;;;;;;;14.20;99.20;;;;;;4978882;28;20382;-68
2021/04/21 07:46:14;;;;;;;;;;;14.20;99.40;;;;;;4961066;28;19922;-70
2021/04/21 07:48:43;;;;;;;;;;;14.00;99.40;;;;;;4978035;28;19929;-70
2021/04/21 07:51:29;;;;;;;;;;;14.00;99.00;;;;;;4978693;28;19921;-65
2021/04/21 07:54:00;;;;;;;;;;;14.60;98.50;;;;;;4978663;28;19972;-65
2021/04/21 07:56:34;;;;;;;;;;;15.50;97.00;;;;;;4979958;28;19922;-65
2021/04/21 07:59:16;;;;;;;;;;;16.80;94.80;;;;;;4979649;28;19957;-65
2021/04/21 08:01:44;;;;;;;;;;;18.70;92.60;;;;;;4978454;28;19926;-65
2021/04/21 08:04:16;;;;;;;;;;;20.90;85.10;;;;;;4978889;28;20360;-64
2021/04/21 08:06:49;;;;;;;;;;;22.50;75.60;;;;;;4979388;28;20025;-64
2021/04/21 08:09:22;;;;;;;;;;;21.90;71.30;;;;;;4979777;28;19926;-64
2021/04/21 08:12:09;;;;;;;;;;;20.90;72.30;;;;;;4979928;28;19926;-64
2021/04/21 08:14:38;;;;;;;;;;;18.80;77.20;;;;;;4980142;28;19926;-65
2021/04/21 08:17:07;;;;;;;;;;;16.80;87.30;;;;;;4978334;28;19926;-64
2021/04/21 08:19:35;;;;;;;;;;;17.80;90.00;;;;;;4979495;28;20016;-64
2021/04/21 08:22:03;;;;;;;;;;;17.30;87.80;;;;;;4979226;28;19957;-64
2021/04/21 08:24:37;;;;;;;;;;;17.30;89.20;;;;;;4979648;28;19933;-65
2021/04/21 08:27:06;;;;;;;;;;;18.70;87.90;;;;;;4980325;28;19927;-70
2021/04/21 08:29:33;;;;;;;;;;;20.00;81.70;;;;;;4979497;28;19963;-65
2021/04/21 08:32:04;;;;;;;;;;;21.00;76.50;;;;;;4979098;28;20370;-68
2021/04/21 08:34:32;;;;;;;;;;;22.80;70.50;;;;;;4979732;28;20148;-65
2021/04/21 08:36:59;;;;;;;;;;;22.90;63.80;;;;;;4979719;28;19933;-65
2021/04/21 08:39:27;;;;;;;;;;;22.10;63.90;;;;;;4979794;28;19963;-65
2021/04/21 08:42:05;;;;;;;;;;;21.00;67.30;;;;;;4978574;28;19969;-65
2021/04/21 08:44:36;;;;;;;;;;;21.00;67.60;;;;;;4963031;28;20453;-69
2021/04/21 08:47:04;;;;;;;;;;;21.30;66.90;;;;;;4978815;28;19974;-65
2021/04/21 08:49:33;;;;;;;;;;;21.30;65.90;;;;;;4978732;28;19962;-65
2021/04/21 08:52:01;;;;;;;;;;;22.10;65.00;;;;;;4978466;28;19932;-65
2021/04/21 08:54:30;;;;;;;;;;;25.00;58.60;;;;;;4977688;28;20054;-66
2021/04/21 08:56:58;;;;;;;;;;;25.20;56.40;;;;;;4977784;28;19961;-66
2021/04/21 08:59:25;;;;;;;;;;;25.10;52.40;;;;;;4975785;28;19977;-67
2021/04/21 09:01:53;;;;;;;;;;;24.60;51.80;;;;;;4973439;28;20401;-63
2021/04/21 09:04:22;;;;;;;;;;;24.60;51.70;;;;;;4974956;28;19933;-64
2021/04/21 09:06:52;;;;;;;;;;;24.20;51.90;;;;;;4973319;28;20012;-64
2021/04/21 09:09:20;;;;;;;;;;;25.20;52.70;;;;;;4974791;28;19968;-68
2021/04/21 09:11:47;;;;;;;;;;;25.20;50.70;;;;;;4957919;28;19954;-65
2021/04/21 09:14:15;;;;;;;;;;;25.50;46.40;;;;;;4976381;28;19926;-64
2021/04/21 09:16:43;;;;;;;;;;;23.00;51.40;;;;;;4979593;28;20507;-65
2021/04/21 09:19:13;;;;;;;;;;;23.20;54.40;;;;;;4980157;28;19972;-64
2021/04/21 09:21:41;;;;;;;;;;;23.30;51.30;;;;;;4979664;28;20057;-65
2021/04/21 09:24:24;;;;;;;;;;;26.40;48.00;;;;;;4978794;28;20053;-64
2021/04/21 09:26:52;;;;;;;;;;;28.20;44.20;;;;;;4977851;28;20020;-65
2021/04/21 09:29:25;;;;;;;;;;;25.60;44.10;;;;;;4976937;28;19998;-66
2021/04/21 09:32:05;;;;;;;;;;;25.50;46.50;;;;;;4976932;28;20437;-64
2021/04/21 09:34:55;;;;;;;;;;;27.40;45.30;;;;;;4977941;28;20313;-65
2021/04/21 09:37:27;;;;;;;;;;;25.20;46.40;;;;;;4976499;28;19934;-65
2021/04/21 09:39:55;;;;;;;;;;;24.70;48.20;;;;;;4977975;28;20030;-64
2021/04/21 09:42:27;;;;;;;;;;;26.00;46.50;;;;;;4978027;28;20378;-69
2021/04/21 09:44:54;;;;;;;;;;;26.50;44.40;;;;;;4977513;28;19960;-64
2021/04/21 09:47:21;;;;;;;;;;;25.00;45.50;;;;;;4977142;28;19965;-65
2021/04/21 09:49:55;;;;;;;;;;;25.00;45.80;;;;;;4977523;28;19926;-65
2021/04/21 09:52:29;;;;;;;;;;;25.30;45.40;;;;;;4977338;28;20035;-65
2021/04/21 09:54:58;;;;;;;;;;;25.40;44.80;;;;;;4976130;28;19926;-65
2021/04/21 09:57:31;;;;;;;;;;;24.60;46.10;;;;;;4991586;28;19926;-66
2021/04/21 10:00:00;;;;;;;;;;;24.70;44.80;;;;;;4978012;28;19930;-66
2021/04/21 10:02:31;;;;;;;;;;;24.30;45.90;;;;;;4958183;29;19954;-72
2021/04/21 10:05:20;;;;;;;;;;;24.00;45.80;;;;;;4959481;29;19943;-65
2021/04/21 10:07:48;;;;;;;;;;;25.90;44.30;;;;;;4958695;29;20354;-66
2021/04/21 10:10:27;;;;;;;;;;;26.80;42.80;;;;;;4958539;29;19961;-68
2021/04/21 10:12:55;;;;;;;;;;;28.80;40.00;;;;;;4966177;28;19973;-65
2021/04/21 10:15:29;;;;;;;;;;;28.40;40.30;;;;;;4977346;28;20359;-66
2021/04/21 10:17:57;;;;;;;;;;;28.00;39.10;;;;;;4960155;28;19999;-65
2021/04/21 10:20:25;;;;;;;;;;;27.10;40.00;;;;;;4977529;28;19926;-66
2021/04/21 10:22:54;;;;;;;;;;;27.00;41.80;;;;;;4977850;28;19961;-65
2021/04/21 10:25:21;;;;;;;;;;;27.80;40.40;;;;;;4977334;28;20402;-69
2021/04/21 10:27:49;;;;;;;;;;;25.80;42.60;;;;;;4978099;28;20043;-65
2021/04/21 10:30:22;;;;;;;;;;;27.00;41.30;;;;;;4976706;28;19962;-66
2021/04/21 10:32:50;;;;;;;;;;;24.80;42.50;;;;;;4978111;28;19980;-65
2021/04/21 10:35:17;;;;;;;;;;;26.00;41.70;;;;;;4978159;28;19992;-65
2021/04/21 10:37:45;;;;;;;;;;;24.50;43.20;;;;;;4978295;28;19934;-69
2021/04/21 10:40:22;;;;;;;;;;;22.80;45.80;;;;;;4977968;28;20417;-65
2021/04/21 10:42:50;;;;;;;;;;;23.80;46.00;;;;;;4978690;28;20017;-67
2021/04/21 10:45:19;;;;;;;;;;;24.00;44.50;;;;;;4960255;28;19984;-65
2021/04/21 10:47:48;;;;;;;;;;;24.30;43.20;;;;;;4978917;28;19973;-65
2021/04/21 10:50:33;;;;;;;;;;;23.70;45.50;;;;;;4979071;28;19961;-65
2021/04/21 10:53:01;;;;;;;;;;;22.10;46.70;;;;;;4980109;28;20437;-65
2021/04/21 10:55:32;;;;;;;;;;;20.80;49.70;;;;;;4980897;28;20373;-66
2021/04/21 10:58:01;;;;;;;;;;;20.20;50.60;;;;;;4980849;28;20401;-65
2021/04/21 11:00:30;;;;;;;;;;;19.80;52.20;;;;;;4978127;28;19926;-68
2021/04/21 11:03:02;;;;;;;;;;;19.60;52.90;;;;;;4980780;28;19932;-65
2021/04/21 11:05:41;;;;;;;;;;;19.30;54.00;;;;;;4995301;28;19926;-65
2021/04/21 11:08:10;;;;;;;;;;;19.10;55.60;;;;;;4979552;28;19932;-68
2021/04/21 11:10:40;;;;;;;;;;;19.50;55.80;;;;;;4979511;28;19961;-69
2021/04/21 11:13:09;;;;;;;;;;;21.70;51.60;;;;;;4963748;28;19930;-66
2021/04/21 11:15:37;;;;;;;;;;;23.60;47.70;;;;;;4974954;28;19926;-65
2021/04/21 11:18:24;;;;;;;;;;;23.90;46.20;;;;;;4980730;28;20263;-65
2021/04/21 11:20:59;;;;;;;;;;;22.00;46.10;;;;;;4980644;28;19949;-64
2021/04/21 11:23:45;;;;;;;;;;;21.80;49.10;;;;;;4978695;28;19926;-67
2021/04/21 11:26:47;;;;;;;;;;;22.10;49.60;;;;;;4978314;28;19977;-69
2021/04/21 11:29:16;;;;;;;;;;;22.60;49.70;;;;;;4978747;28;20375;-64
2021/04/21 11:32:04;;;;;;;;;;;24.20;45.50;;;;;;4977371;28;19930;-64
2021/04/21 11:34:33;;;;;;;;;;;25.80;44.10;;;;;;4975339;28;19930;-64
2021/04/21 11:37:01;;;;;;;;;;;26.50;43.80;;;;;;4978147;28;20309;-66
2021/04/21 11:39:48;;;;;;;;;;;24.10;43.60;;;;;;4979395;28;19926;-65
2021/04/21 11:42:17;;;;;;;;;;;23.20;47.20;;;;;;4980038;28;19942;-66
2021/04/21 11:44:59;;;;;;;;;;;21.90;48.10;;;;;;4980169;28;19973;-66
2021/04/21 11:47:34;;;;;;;;;;;20.80;48.30;;;;;;4978034;28;19926;-66
2021/04/21 11:50:19;;;;;;;;;;;19.70;49.50;;;;;;4979911;28;19926;-72
2021/04/21 11:52:52;;;;;;;;;;;19.60;50.30;;;;;;4979846;28;19926;-65
2021/04/21 11:55:21;;;;;;;;;;;19.40;50.90;;;;;;4980793;28;20366;-65
2021/04/21 11:57:56;;;;;;;;;;;18.70;52.40;;;;;;4979609;28;19926;-69
2021/04/21 12:00:26;;;;;;;;;;;18.50;53.80;;;;;;4977647;28;19954;-69
2021/04/21 12:02:55;;;;;;;;;;;18.40;54.20;;;;;;4978933;28;19933;-65
2021/04/21 12:05:24;;;;;;;;;;;17.80;54.70;;;;;;4979442;28;20428;-68
2021/04/21 12:07:52;;;;;;;;;;;18.30;55.10;;;;;;4978751;28;20401;-65
2021/04/21 12:10:21;;;;;;;;;;;18.20;55.20;;;;;;4979192;28;19926;-66
2021/04/21 12:12:48;;;;;;;;;;;18.30;55.70;;;;;;4979057;28;19926;-65
2021/04/21 12:15:20;;;;;;;;;;;18.40;56.20;;;;;;4978408;28;20015;-66
2021/04/21 12:17:52;;;;;;;;;;;18.20;56.80;;;;;;4978318;28;20420;-69
2021/04/21 12:20:24;;;;;;;;;;;17.60;56.80;;;;;;4978587;28;19930;-67
2021/04/21 12:22:52;;;;;;;;;;;17.80;61.70;;;;;;4977743;28;19926;-66
2021/04/21 12:25:23;;;;;;;;;;;16.80;68.60;;;;;;4978631;28;20205;-66
2021/04/21 12:27:52;;;;;;;;;;;16.50;77.80;;;;;;4977743;28;19926;-68
2021/04/21 12:30:51;;;;;;;;;;;16.50;83.00;;;;;;4978213;28;19926;-66
2021/04/21 12:33:20;;;;;;;;;;;16.50;86.50;;;;;;4979055;28;19933;-66
2021/04/21 12:35:48;;;;;;;;;;;16.10;87.70;;;;;;4978657;28;19926;-65
2021/04/21 12:38:25;;;;;;;;;;;15.90;87.90;;;;;;4978927;28;19933;-65
2021/04/21 12:40:53;;;;;;;;;;;15.60;90.90;;;;;;4978329;28;20331;-66
2021/04/21 12:43:20;;;;;;;;;;;15.50;88.10;;;;;;4960674;28;19981;-67
2021/04/21 12:45:48;;;;;;;;;;;15.10;85.20;;;;;;4959923;28;20338;-68
2021/04/21 12:48:20;;;;;;;;;;;14.70;90.10;;;;;;4977968;28;19926;-66
2021/04/21 12:50:48;;;;;;;;;;;14.30;84.50;;;;;;4977740;28;19926;-67
2021/04/21 12:53:16;;;;;;;;;;;14.20;90.60;;;;;;4978312;28;20001;-69
2021/04/21 12:55:46;;;;;;;;;;;14.20;91.60;;;;;;4978823;28;19936;-71
2021/04/21 13:01:09;;;;;;;;;;;14.00;88.40;;;;;;4978601;28;19933;-67
2021/04/21 13:03:39;;;;;;;;;;;14.10;89.30;;;;;;4994155;28;20016;-66
2021/04/21 13:06:07;;;;;;;;;;;14.30;88.90;;;;;;4978394;28;20374;-67
2021/04/21 13:08:37;;;;;;;;;;;14.70;87.80;;;;;;4979322;28;20028;-67
2021/04/21 13:11:08;;;;;;;;;;;15.00;86.30;;;;;;4979180;28;19934;-67
2021/04/21 13:13:47;;;;;;;;;;;15.20;88.00;;;;;;4961514;28;20306;-67
2021/04/21 13:16:25;;;;;;;;;;;15.10;85.30;;;;;;4977801;28;19958;-67
2021/04/21 13:18:54;;;;;;;;;;;15.40;89.70;;;;;;4979336;28;20289;-67
2021/04/21 13:21:23;;;;;;;;;;;14.90;90.80;;;;;;4979393;28;19926;-67
2021/04/21 13:23:51;;;;;;;;;;;14.60;91.80;;;;;;4978764;28;19926;-68
2021/04/21 13:26:18;;;;;;;;;;;14.70;91.60;;;;;;4979356;28;19926;-66
2021/04/21 13:28:51;;;;;;;;;;;14.70;91.90;;;;;;4961678;28;19926;-68
2021/04/21 13:31:25;;;;;;;;;;;14.80;91.50;;;;;;4976121;28;19974;-67
2021/04/21 13:33:54;;;;;;;;;;;15.30;91.70;;;;;;4977778;28;19998;-66
2021/04/21 13:36:22;;;;;;;;;;;15.60;90.70;;;;;;4976994;28;19973;-70
2021/04/21 13:38:49;;;;;;;;;;;15.60;88.50;;;;;;4976077;28;19927;-66
2021/04/21 13:41:18;;;;;;;;;;;15.60;87.20;;;;;;4977319;28;19932;-67
2021/04/21 13:43:45;;;;;;;;;;;16.00;86.70;;;;;;4977110;28;19927;-67
2021/04/21 13:46:13;;;;;;;;;;;16.10;87.80;;;;;;4977815;28;19926;-66
2021/04/21 13:48:40;;;;;;;;;;;16.80;87.30;;;;;;4993665;28;20008;-68
2021/04/21 13:51:10;;;;;;;;;;;17.70;86.20;;;;;;4978914;28;20044;-66
2021/04/21 13:53:38;;;;;;;;;;;17.60;85.00;;;;;;4978261;28;19926;-67
2021/04/21 13:59:01;;;;;;;;;;;16.00;90.10;;;;;;4977446;28;19926;-68
2021/04/21 14:01:31;;;;;;;;;;;16.60;88.30;;;;;;4987697;28;20378;-69
2021/04/21 14:03:58;;;;;;;;;;;16.50;88.40;;;;;;4980384;28;19926;-68
2021/04/21 14:06:26;;;;;;;;;;;16.70;90.00;;;;;;4981440;28;19926;-67
2021/04/21 14:08:54;;;;;;;;;;;16.10;90.40;;;;;;4963496;28;19926;-67
2021/04/21 14:11:21;;;;;;;;;;;14.90;92.40;;;;;;4981790;28;20025;-67
2021/04/21 14:13:49;;;;;;;;;;;13.90;96.20;;;;;;4964219;28;19950;-69
2021/04/21 14:16:16;;;;;;;;;;;14.20;98.80;;;;;;4979943;28;19926;-67
2021/04/21 14:18:44;;;;;;;;;;;14.20;98.10;;;;;;4982138;28;19937;-67
2021/04/21 14:21:13;;;;;;;;;;;14.00;98.20;;;;;;4982537;28;20382;-67
2021/04/21 14:23:43;;;;;;;;;;;14.20;99.00;;;;;;4982335;28;19956;-70
2021/04/21 14:26:11;;;;;;;;;;;14.20;98.90;;;;;;4980133;28;19927;-66
2021/04/21 14:28:39;;;;;;;;;;;14.10;99.70;;;;;;4981103;28;19930;-67
2021/04/21 14:31:09;;;;;;;;;;;14.30;99.80;;;;;;4979926;28;20470;-66
2021/04/21 14:33:36;;;;;;;;;;;14.40;99.50;;;;;;4979987;28;19926;-66
2021/04/21 14:36:09;;;;;;;;;;;14.40;98.80;;;;;;4980421;28;20001;-67
2021/04/21 14:38:37;;;;;;;;;;;14.40;99.40;;;;;;4979496;28;19926;-67
2021/04/21 14:41:05;;;;;;;;;;;15.00;97.10;;;;;;4980548;28;20052;-66
2021/04/21 14:43:32;;;;;;;;;;;15.70;95.80;;;;;;4981258;28;20278;-66
2021/04/21 14:45:59;;;;;;;;;;;15.70;94.00;;;;;;4980926;28;19926;-66
2021/04/21 14:48:27;;;;;;;;;;;15.90;94.20;;;;;;4981295;28;19949;-66
2021/04/21 14:50:55;;;;;;;;;;;16.10;93.20;;;;;;4981036;28;19930;-65
2021/04/21 14:53:22;;;;;;;;;;;16.50;93.10;;;;;;4980513;28;19997;-70
2021/04/21 14:55:53;;;;;;;;;;;17.00;93.30;;;;;;4979470;28;19958;-66
2021/04/21 14:58:23;;;;;;;;;;;18.10;90.10;;;;;;4981373;28;19926;-66
2021/04/21 15:00:51;;;;;;;;;;;18.50;85.50;;;;;;4979787;28;19926;-66
2021/04/21 15:03:19;;;;;;;;;;;20.00;80.50;;;;;;4981046;28;20271;-65